Time;durP1;ratioP1;P1;durP2;ratioP2;P2;SDS_P1;SDS_P2;PMS_P1;PMS_P2;Temp;Humidity;BMP_temperature;BMP_pressure;BME280_temperature;BME280_humidity;BME280_pressure;Samples;Min_cycle;Max_cycle;Signal;HPM_P1;HPM_P2
2023/12/30 00:01:20;;;;;;;2.28;0.98;;;10.20;99.90;;;;;;6179790;23;20119;-66
2023/12/30 00:04:06;;;;;;;1.73;1.15;;;10.10;99.90;;;;;;6158158;23;20015;-65
2023/12/30 00:06:52;;;;;;;2.55;1.30;;;10.10;99.90;;;;;;6180733;23;20356;-65
2023/12/30 00:09:38;;;;;;;2.90;1.13;;;10.10;99.90;;;;;;6180523;23;20338;-65
2023/12/30 00:12:24;;;;;;;2.83;1.25;;;10.10;99.90;;;;;;6179314;23;20382;-65
2023/12/30 00:15:10;;;;;;;1.45;0.90;;;10.10;99.90;;;;;;6180747;23;20426;-64
2023/12/30 00:17:56;;;;;;;2.33;1.33;;;10.10;99.90;;;;;;6159587;23;20009;-64
2023/12/30 00:20:42;;;;;;;1.08;0.85;;;10.10;99.90;;;;;;6160324;23;20088;-64
2023/12/30 00:23:28;;;;;;;2.65;1.20;;;10.10;99.90;;;;;;6179110;23;20013;-65
2023/12/30 00:26:23;;;;;;;2.45;1.30;;;10.10;99.90;;;;;;6182009;23;20025;-64
2023/12/30 00:29:11;;;;;;;2.22;1.33;;;10.10;99.90;;;;;;6180120;23;20020;-65
2023/12/30 00:31:57;;;;;;;5.22;1.52;;;10.10;99.90;;;;;;6180133;23;20009;-65
2023/12/30 00:34:43;;;;;;;1.35;0.90;;;10.20;99.90;;;;;;6180418;23;20016;-64
2023/12/30 00:37:29;;;;;;;1.30;0.90;;;10.10;99.90;;;;;;6178722;23;20437;-64
2023/12/30 00:40:15;;;;;;;0.95;0.80;;;10.10;99.90;;;;;;6180909;23;20331;-64
2023/12/30 00:43:01;;;;;;;3.42;0.90;;;10.10;99.90;;;;;;6179209;23;20016;-64
2023/12/30 00:45:48;;;;;;;1.85;1.00;;;10.20;99.90;;;;;;6179356;23;20048;-64
2023/12/30 00:48:34;;;;;;;3.67;1.42;;;10.20;99.90;;;;;;6180599;23;20009;-64
2023/12/30 00:51:20;;;;;;;4.93;1.40;;;10.20;99.90;;;;;;6179421;23;20397;-64
2023/12/30 00:54:06;;;;;;;2.10;1.15;;;10.20;99.90;;;;;;6180008;23;20016;-64
2023/12/30 00:56:52;;;;;;;2.13;1.23;;;10.20;99.90;;;;;;6179198;23;20458;-64
2023/12/30 00:59:38;;;;;;;3.13;1.58;;;10.30;99.90;;;;;;6180130;23;20088;-64
2023/12/30 01:02:23;;;;;;;2.53;1.00;;;10.30;99.90;;;;;;6179426;23;20489;-64
2023/12/30 01:05:09;;;;;;;3.50;1.50;;;10.30;99.90;;;;;;6179574;23;20021;-64
2023/12/30 01:07:56;;;;;;;2.38;1.58;;;10.30;99.90;;;;;;6178854;23;20005;-64
2023/12/30 01:10:42;;;;;;;2.92;1.02;;;10.30;99.90;;;;;;6180573;23;20009;-64
2023/12/30 01:13:28;;;;;;;2.05;1.10;;;10.30;99.90;;;;;;6179934;23;20416;-64
2023/12/30 01:16:15;;;;;;;2.95;1.25;;;10.30;99.90;;;;;;6180485;23;20341;-65
2023/12/30 01:19:01;;;;;;;1.70;1.08;;;10.30;99.90;;;;;;6182467;23;20005;-64
2023/12/30 01:21:48;;;;;;;2.42;1.45;;;10.30;99.90;;;;;;6183240;23;20013;-64
2023/12/30 01:24:34;;;;;;;1.70;1.10;;;10.30;99.90;;;;;;6183158;23;20005;-65
2023/12/30 01:27:20;;;;;;;2.33;1.10;;;10.30;99.90;;;;;;6180858;23;20468;-65
2023/12/30 01:30:07;;;;;;;3.17;1.30;;;10.30;99.90;;;;;;6182664;23;20460;-64
2023/12/30 01:32:52;;;;;;;1.73;0.93;;;10.30;99.90;;;;;;6183773;23;20095;-63
2023/12/30 01:35:38;;;;;;;1.58;1.05;;;10.20;99.90;;;;;;6181893;23;20064;-64
2023/12/30 01:38:24;;;;;;;1.13;0.88;;;10.30;99.90;;;;;;6180509;23;20009;-64
2023/12/30 01:41:10;;;;;;;2.55;0.90;;;10.20;99.90;;;;;;6182005;23;20009;-63
2023/12/30 01:43:56;;;;;;;0.80;0.52;;;10.20;99.90;;;;;;6182301;23;20069;-64
2023/12/30 01:46:43;;;;;;;1.73;0.90;;;10.10;99.90;;;;;;6183146;23;20017;-65
2023/12/30 01:49:29;;;;;;;0.95;0.68;;;10.10;99.90;;;;;;6160100;23;20012;-65
2023/12/30 01:52:15;;;;;;;1.67;1.10;;;10.20;99.90;;;;;;6182107;23;20338;-65
2023/12/30 01:55:07;;;;;;;2.10;1.17;;;10.10;99.90;;;;;;6181933;23;20338;-66
2023/12/30 01:57:53;;;;;;;2.90;1.50;;;10.10;99.90;;;;;;6183817;23;20016;-66
2023/12/30 02:00:41;;;;;;;3.05;1.42;;;10.20;99.90;;;;;;6181965;23;20009;-66
2023/12/30 02:03:28;;;;;;;3.15;1.58;;;10.10;99.90;;;;;;6184441;23;20047;-65
2023/12/30 02:06:13;;;;;;;4.13;2.20;;;10.10;99.90;;;;;;6181086;23;20021;-66
2023/12/30 02:09:02;;;;;;;3.17;1.65;;;10.10;99.90;;;;;;6182367;23;20020;-66
2023/12/30 02:11:48;;;;;;;2.83;1.80;;;10.10;99.90;;;;;;6180841;23;20037;-65
2023/12/30 02:14:35;;;;;;;2.70;1.40;;;10.10;99.90;;;;;;6182627;23;20032;-65
2023/12/30 02:17:22;;;;;;;3.30;1.67;;;10.10;99.90;;;;;;6182058;23;20013;-65
2023/12/30 02:20:09;;;;;;;3.53;1.40;;;10.10;99.90;;;;;;6180688;23;20011;-65
2023/12/30 02:22:55;;;;;;;1.92;1.20;;;10.10;99.90;;;;;;6180977;23;20510;-65
2023/12/30 02:25:43;;;;;;;2.58;1.52;;;10.10;99.90;;;;;;6181336;23;20103;-65
2023/12/30 02:28:29;;;;;;;2.15;1.25;;;10.10;99.90;;;;;;6182025;23;20334;-65
2023/12/30 02:31:15;;;;;;;2.70;1.30;;;10.10;99.90;;;;;;6182341;23;20009;-65
2023/12/30 02:34:01;;;;;;;2.00;1.20;;;10.10;99.90;;;;;;6182461;23;20020;-65
2023/12/30 02:36:47;;;;;;;3.47;1.10;;;10.10;99.90;;;;;;6181565;23;20061;-67
2023/12/30 02:39:33;;;;;;;2.17;1.10;;;10.10;99.90;;;;;;6179761;23;20016;-65
2023/12/30 02:42:19;;;;;;;2.67;1.08;;;10.10;99.90;;;;;;6182403;23;20088;-65
2023/12/30 02:45:06;;;;;;;2.42;1.27;;;10.20;99.90;;;;;;6181416;23;20032;-64
2023/12/30 02:47:52;;;;;;;2.08;1.10;;;10.10;99.90;;;;;;6177346;23;20441;-63
2023/12/30 02:50:38;;;;;;;2.55;1.30;;;10.20;99.90;;;;;;6179530;23;20417;-64
2023/12/30 02:53:24;;;;;;;2.70;1.30;;;10.10;99.90;;;;;;6180494;23;20091;-63
2023/12/30 02:56:20;;;;;;;2.00;1.00;;;10.10;99.90;;;;;;6181503;23;20096;-63
2023/12/30 02:59:06;;;;;;;2.65;1.20;;;10.10;99.90;;;;;;6161202;23;20024;-64
2023/12/30 03:01:52;;;;;;;2.20;1.13;;;10.10;99.90;;;;;;6180513;23;20017;-64
2023/12/30 03:04:38;;;;;;;1.85;0.80;;;10.20;99.90;;;;;;6179222;23;20100;-64
2023/12/30 03:07:24;;;;;;;2.25;1.10;;;10.10;99.90;;;;;;6181051;23;20017;-63
2023/12/30 03:10:10;;;;;;;2.22;0.90;;;10.20;99.90;;;;;;6180734;23;20430;-64
2023/12/30 03:12:56;;;;;;;2.00;0.88;;;10.10;99.90;;;;;;6178383;23;20041;-63
2023/12/30 03:15:42;;;;;;;1.98;1.05;;;10.10;99.90;;;;;;6180992;23;20063;-64
2023/12/30 03:18:28;;;;;;;1.98;0.70;;;10.10;99.90;;;;;;6180662;23;20345;-64
2023/12/30 03:21:16;;;;;;;2.08;1.08;;;10.10;99.90;;;;;;6181585;23;20346;-63
2023/12/30 03:24:03;;;;;;;1.10;0.80;;;10.10;99.90;;;;;;6180844;23;20504;-64
2023/12/30 03:26:49;;;;;;;2.33;0.93;;;10.10;99.90;;;;;;6179066;23;20017;-63
2023/12/30 03:29:34;;;;;;;2.20;0.70;;;10.20;99.90;;;;;;6181386;23;20377;-64
2023/12/30 03:32:20;;;;;;;3.03;1.67;;;10.10;99.90;;;;;;6180142;23;20023;-64
2023/12/30 03:35:07;;;;;;;0.50;0.50;;;10.10;99.90;;;;;;6179790;23;20005;-64
2023/12/30 03:37:52;;;;;;;1.30;0.90;;;10.10;99.90;;;;;;6180479;23;20013;-64
2023/12/30 03:40:38;;;;;;;1.20;1.00;;;10.10;99.90;;;;;;6180990;23;20016;-63
2023/12/30 03:43:24;;;;;;;1.88;0.80;;;10.10;99.90;;;;;;6180703;23;20052;-64
2023/12/30 03:46:10;;;;;;;1.52;0.90;;;10.10;99.90;;;;;;6180847;23;20024;-64
2023/12/30 03:48:56;;;;;;;0.82;0.68;;;10.00;99.90;;;;;;6181124;23;20044;-64
2023/12/30 03:51:42;;;;;;;1.73;0.80;;;10.10;99.90;;;;;;6179596;23;20016;-64
2023/12/30 03:54:28;;;;;;;0.70;0.70;;;10.00;99.90;;;;;;6182020;23;20077;-63
2023/12/30 03:57:14;;;;;;;1.00;0.73;;;10.00;99.90;;;;;;6182355;23;20084;-63
2023/12/30 04:00:00;;;;;;;3.45;1.00;;;10.00;99.90;;;;;;6181019;23;20051;-64
2023/12/30 04:02:47;;;;;;;2.70;0.93;;;10.00;99.90;;;;;;6179738;23;20029;-64
2023/12/30 04:05:33;;;;;;;2.13;0.60;;;10.00;99.90;;;;;;6182939;23;20350;-64
2023/12/30 04:08:18;;;;;;;1.98;0.40;;;10.00;99.90;;;;;;6180204;23;20497;-64
2023/12/30 04:11:04;;;;;;;0.85;0.60;;;10.00;99.90;;;;;;6181385;23;20017;-64
2023/12/30 04:13:50;;;;;;;3.20;0.80;;;9.90;99.90;;;;;;6179938;23;20013;-64
2023/12/30 04:16:36;;;;;;;1.38;0.80;;;9.90;99.90;;;;;;6159408;23;20071;-64
2023/12/30 04:19:24;;;;;;;2.42;1.10;;;9.90;99.90;;;;;;6181250;23;20105;-63
2023/12/30 04:22:10;;;;;;;1.65;0.80;;;9.90;99.90;;;;;;6180057;23;20013;-63
2023/12/30 04:24:57;;;;;;;2.85;0.80;;;9.90;99.90;;;;;;6180773;23;20100;-64
2023/12/30 04:27:43;;;;;;;0.55;0.55;;;9.90;99.90;;;;;;6180664;23;20388;-64
2023/12/30 04:30:28;;;;;;;2.90;1.42;;;9.90;99.90;;;;;;6181079;23;20013;-63
2023/12/30 04:33:14;;;;;;;1.35;0.75;;;9.80;99.90;;;;;;6181410;23;20005;-64
2023/12/30 04:36:00;;;;;;;1.23;0.85;;;9.80;99.90;;;;;;6180532;23;20013;-64
2023/12/30 04:38:46;;;;;;;0.88;0.77;;;9.70;99.90;;;;;;6179786;23;20160;-64
2023/12/30 04:41:32;;;;;;;2.50;0.70;;;9.70;99.90;;;;;;6181006;23;20109;-64
2023/12/30 04:44:18;;;;;;;1.75;0.70;;;9.70;99.90;;;;;;6177791;23;20016;-64
2023/12/30 04:47:04;;;;;;;0.75;0.50;;;9.70;99.90;;;;;;6181892;23;20458;-64
2023/12/30 04:49:50;;;;;;;1.65;0.70;;;9.60;99.90;;;;;;6159345;23;20013;-65
2023/12/30 04:52:36;;;;;;;0.65;0.50;;;9.60;99.90;;;;;;6183642;23;20012;-64
2023/12/30 04:55:22;;;;;;;1.02;0.65;;;9.50;99.90;;;;;;6184050;23;20063;-63
2023/12/30 04:58:08;;;;;;;1.42;1.08;;;9.50;99.90;;;;;;6184297;23;20048;-64
2023/12/30 05:00:54;;;;;;;8.80;0.98;;;9.50;99.90;;;;;;6161462;23;20009;-64
2023/12/30 05:03:43;;;;;;;0.65;0.60;;;9.40;99.90;;;;;;6183238;23;20015;-64
2023/12/30 05:06:29;;;;;;;0.88;0.70;;;9.40;99.90;;;;;;6184147;23;20024;-64
2023/12/30 05:09:15;;;;;;;1.17;0.52;;;9.40;99.90;;;;;;6183805;23;20009;-63
2023/12/30 05:12:01;;;;;;;1.52;0.70;;;9.30;99.90;;;;;;6182516;23;20108;-64
2023/12/30 05:14:47;;;;;;;1.63;0.70;;;9.30;99.90;;;;;;6183799;23;20009;-63
2023/12/30 05:17:35;;;;;;;1.10;0.63;;;9.30;99.90;;;;;;6183878;23;20477;-63
2023/12/30 05:20:21;;;;;;;0.75;0.65;;;9.30;99.90;;;;;;6183018;23;20397;-64
2023/12/30 05:23:07;;;;;;;0.88;0.65;;;9.30;99.90;;;;;;6184798;23;20442;-64
2023/12/30 05:25:53;;;;;;;1.77;0.45;;;9.30;99.90;;;;;;6184020;23;20362;-63
2023/12/30 05:28:39;;;;;;;1.45;0.75;;;9.30;99.90;;;;;;6184561;23;20005;-63
2023/12/30 05:31:24;;;;;;;3.35;1.40;;;9.40;99.90;;;;;;6183552;23;20509;-64
2023/12/30 05:34:10;;;;;;;2.42;1.13;;;9.40;99.90;;;;;;6184246;23;20037;-64
2023/12/30 05:36:56;;;;;;;2.63;0.82;;;9.40;99.90;;;;;;6182643;23;20013;-64
2023/12/30 05:39:42;;;;;;;1.98;0.80;;;9.30;99.90;;;;;;6184170;23;20374;-64
2023/12/30 05:42:28;;;;;;;4.05;0.73;;;9.40;99.90;;;;;;6183582;23;20009;-64
2023/12/30 05:45:14;;;;;;;4.03;0.95;;;9.40;99.90;;;;;;6183700;23;20028;-63
2023/12/30 05:48:02;;;;;;;3.08;0.95;;;9.40;99.90;;;;;;6184321;23;20005;-63
2023/12/30 05:50:48;;;;;;;1.33;0.90;;;9.40;99.90;;;;;;6184220;23;20035;-64
2023/12/30 05:53:34;;;;;;;1.00;0.73;;;9.40;99.90;;;;;;6182938;23;20005;-63
2023/12/30 05:56:23;;;;;;;0.88;0.70;;;9.40;99.90;;;;;;6184132;23;20071;-63
2023/12/30 05:59:09;;;;;;;1.23;0.80;;;9.40;99.90;;;;;;6184145;23;20037;-63
2023/12/30 06:01:58;;;;;;;1.42;0.60;;;9.40;99.90;;;;;;6184016;23;20461;-64
2023/12/30 06:04:44;;;;;;;3.83;0.85;;;9.40;99.90;;;;;;6182252;23;20088;-63
2023/12/30 06:07:30;;;;;;;1.05;0.57;;;9.40;99.90;;;;;;6182367;23;20009;-63
2023/12/30 06:10:16;;;;;;;0.95;0.65;;;9.40;99.90;;;;;;6181934;23;20012;-64
2023/12/30 06:13:02;;;;;;;2.03;0.90;;;9.30;99.90;;;;;;6181567;23;20040;-64
2023/12/30 06:15:50;;;;;;;1.27;0.77;;;9.30;99.90;;;;;;6181292;23;20063;-64
2023/12/30 06:18:39;;;;;;;3.67;0.90;;;9.30;99.90;;;;;;6158914;23;20016;-64
2023/12/30 06:21:25;;;;;;;3.78;0.93;;;9.20;99.90;;;;;;6182216;23;20013;-64
2023/12/30 06:24:11;;;;;;;3.20;1.10;;;9.20;99.90;;;;;;6180280;23;20084;-63
2023/12/30 06:26:57;;;;;;;3.72;0.90;;;9.10;99.90;;;;;;6182114;23;20405;-64
2023/12/30 06:29:43;;;;;;;1.52;0.82;;;9.10;99.90;;;;;;6181265;23;20451;-79
2023/12/30 06:32:29;;;;;;;1.45;0.75;;;9.00;99.90;;;;;;6182473;23;20469;-80
2023/12/30 06:35:14;;;;;;;1.20;0.88;;;9.00;99.90;;;;;;6180408;23;20453;-80
2023/12/30 06:38:01;;;;;;;1.65;0.93;;;9.00;99.90;;;;;;6159038;23;20457;-80
2023/12/30 06:40:47;;;;;;;1.65;0.75;;;9.00;99.90;;;;;;6180489;23;20480;-76
2023/12/30 06:43:33;;;;;;;4.13;0.70;;;8.90;99.90;;;;;;6182598;23;20469;-77
2023/12/30 06:46:20;;;;;;;2.60;1.10;;;8.90;99.90;;;;;;6180687;23;20422;-78
2023/12/30 06:49:06;;;;;;;2.30;0.77;;;8.80;99.90;;;;;;6180707;23;20345;-78
2023/12/30 06:51:51;;;;;;;2.03;1.00;;;8.80;99.90;;;;;;6180320;23;20349;-80
2023/12/30 06:54:40;;;;;;;2.10;1.02;;;8.80;99.90;;;;;;6181886;23;20457;-77
2023/12/30 06:57:26;;;;;;;5.00;1.70;;;8.70;99.90;;;;;;6181596;23;20085;-81
2023/12/30 07:00:12;;;;;;;1.77;0.98;;;8.70;99.90;;;;;;6180969;23;20020;-76
2023/12/30 07:02:58;;;;;;;2.08;1.00;;;8.70;99.90;;;;;;6181441;23;20025;-76
2023/12/30 07:05:44;;;;;;;3.35;1.77;;;8.60;99.90;;;;;;6181004;23;20501;-75
2023/12/30 07:08:30;;;;;;;5.05;1.30;;;8.70;99.90;;;;;;6180368;23;20411;-76
2023/12/30 07:11:16;;;;;;;2.92;1.15;;;8.60;99.90;;;;;;6181183;23;20013;-74
2023/12/30 07:14:02;;;;;;;5.22;1.08;;;8.60;99.90;;;;;;6180958;23;20013;-73
2023/12/30 07:16:51;;;;;;;3.13;1.30;;;8.60;99.90;;;;;;6181151;23;20417;-79
2023/12/30 07:19:37;;;;;;;3.75;1.40;;;8.60;99.90;;;;;;6180183;23;20009;-78
2023/12/30 07:22:23;;;;;;;3.22;1.90;;;8.60;99.90;;;;;;6180688;23;20345;-78
2023/12/30 07:25:09;;;;;;;5.78;1.50;;;8.60;99.90;;;;;;6180390;23;20021;-78
2023/12/30 07:27:55;;;;;;;5.60;2.03;;;8.50;99.90;;;;;;6180615;23;20016;-74
2023/12/30 07:30:40;;;;;;;2.80;1.35;;;8.60;99.90;;;;;;6180888;23;20099;-66
2023/12/30 07:33:27;;;;;;;2.40;1.40;;;8.50;99.90;;;;;;6180767;23;20012;-65
2023/12/30 07:36:13;;;;;;;4.00;1.67;;;8.50;99.90;;;;;;6179358;23;20439;-65
2023/12/30 07:38:59;;;;;;;2.92;1.25;;;8.50;99.90;;;;;;6179007;23;20009;-64
2023/12/30 07:41:45;;;;;;;4.35;1.52;;;8.50;99.90;;;;;;6181638;23;20052;-65
2023/12/30 07:44:34;;;;;;;2.45;1.05;;;8.60;99.90;;;;;;6181599;23;20013;-65
2023/12/30 07:47:20;;;;;;;2.97;1.70;;;8.50;99.90;;;;;;6181184;23;20063;-67
2023/12/30 07:50:06;;;;;;;4.05;1.65;;;8.50;99.90;;;;;;6178064;23;20040;-65
2023/12/30 07:52:52;;;;;;;2.33;1.30;;;8.50;99.90;;;;;;6182497;23;20009;-66
2023/12/30 07:55:38;;;;;;;3.88;1.45;;;8.50;99.90;;;;;;6174371;23;20017;-67
2023/12/30 07:58:24;;;;;;;2.28;1.02;;;8.50;99.90;;;;;;6179117;23;20005;-66
2023/12/30 08:01:10;;;;;;;1.42;1.08;;;8.50;99.90;;;;;;6176486;23;20036;-66
2023/12/30 08:03:56;;;;;;;2.05;1.00;;;8.50;99.90;;;;;;6179843;23;20005;-66
2023/12/30 08:06:42;;;;;;;2.17;1.10;;;8.60;99.90;;;;;;6180023;23;20469;-66
2023/12/30 08:09:28;;;;;;;2.72;1.02;;;8.50;99.90;;;;;;6178686;23;20012;-66
2023/12/30 08:12:14;;;;;;;3.17;1.63;;;8.50;99.90;;;;;;6180652;23;20342;-65
2023/12/30 08:15:00;;;;;;;3.00;1.63;;;8.50;99.90;;;;;;6179503;23;20047;-65
2023/12/30 08:17:46;;;;;;;3.40;1.30;;;8.50;99.90;;;;;;6180960;23;20068;-65
2023/12/30 08:20:32;;;;;;;1.50;1.02;;;8.50;99.90;;;;;;6177737;23;20009;-65
2023/12/30 08:23:18;;;;;;;2.58;1.58;;;8.50;99.90;;;;;;6178926;23;20009;-66
2023/12/30 08:26:04;;;;;;;3.63;1.25;;;8.40;99.90;;;;;;6180098;23;20099;-67
2023/12/30 08:28:54;;;;;;;2.17;1.33;;;8.50;99.90;;;;;;6177880;23;20009;-67
2023/12/30 08:31:45;;;;;;;3.72;1.60;;;8.50;99.90;;;;;;6178961;23;20017;-66
2023/12/30 08:34:31;;;;;;;2.75;1.20;;;8.50;99.90;;;;;;6178301;23;20009;-66
2023/12/30 08:37:17;;;;;;;2.67;1.30;;;8.50;99.90;;;;;;6179772;23;20019;-66
2023/12/30 08:40:06;;;;;;;2.75;1.40;;;8.50;99.90;;;;;;6181011;23;20016;-67
2023/12/30 08:42:51;;;;;;;4.75;1.63;;;8.50;99.90;;;;;;6180187;23;20013;-67
2023/12/30 08:45:38;;;;;;;6.45;1.52;;;8.50;99.90;;;;;;6179985;23;20021;-67
2023/12/30 08:48:24;;;;;;;5.63;1.35;;;8.50;99.90;;;;;;6178395;23;20354;-66
2023/12/30 08:51:13;;;;;;;1.65;1.02;;;8.50;99.90;;;;;;6157234;23;20020;-67
2023/12/30 08:53:59;;;;;;;1.30;1.10;;;8.50;99.90;;;;;;6180113;23;20013;-67
2023/12/30 08:56:45;;;;;;;3.63;1.73;;;8.50;99.90;;;;;;6178888;23;20445;-66
2023/12/30 08:59:31;;;;;;;4.82;2.05;;;8.50;99.90;;;;;;6178812;23;20016;-66
2023/12/30 09:02:17;;;;;;;4.30;1.60;;;8.50;99.90;;;;;;6176690;23;20253;-66
2023/12/30 09:05:04;;;;;;;4.40;1.33;;;8.50;99.90;;;;;;6177724;23;20055;-66
2023/12/30 09:07:51;;;;;;;3.85;1.40;;;8.50;99.90;;;;;;6181606;23;20088;-66
2023/12/30 09:10:38;;;;;;;2.80;1.20;;;8.50;99.90;;;;;;6180487;23;20013;-66
2023/12/30 09:13:24;;;;;;;3.10;1.45;;;8.60;99.90;;;;;;6157793;23;20080;-67
2023/12/30 09:16:10;;;;;;;4.50;1.80;;;8.60;99.90;;;;;;6179655;23;20012;-66
2023/12/30 09:18:56;;;;;;;3.05;1.45;;;8.60;99.90;;;;;;6181099;23;20009;-67
2023/12/30 09:21:42;;;;;;;5.38;1.67;;;8.60;99.90;;;;;;6178624;23;20088;-67
2023/12/30 09:24:28;;;;;;;5.13;1.90;;;8.70;99.90;;;;;;6176967;23;20021;-67
2023/12/30 09:27:14;;;;;;;3.25;1.30;;;8.60;99.90;;;;;;6177767;23;20045;-66
2023/12/30 09:30:00;;;;;;;4.78;1.63;;;8.70;99.90;;;;;;6179095;23;20020;-66
2023/12/30 09:32:47;;;;;;;4.75;1.83;;;8.70;99.90;;;;;;6180334;23;20005;-66
2023/12/30 09:35:33;;;;;;;6.65;1.75;;;8.70;99.90;;;;;;6178899;23;20017;-66
2023/12/30 09:38:19;;;;;;;4.70;1.85;;;8.70;99.90;;;;;;6182958;23;20037;-66
2023/12/30 09:41:05;;;;;;;3.28;1.90;;;8.80;99.90;;;;;;6179693;23;20013;-66
2023/12/30 09:43:53;;;;;;;7.07;1.77;;;8.80;99.90;;;;;;6180633;23;20377;-67
2023/12/30 09:46:40;;;;;;;4.25;1.50;;;8.80;99.90;;;;;;6181054;23;20056;-67
2023/12/30 09:49:28;;;;;;;3.90;1.38;;;8.90;99.90;;;;;;6179583;23;20012;-66
2023/12/30 09:52:15;;;;;;;4.93;2.20;;;9.00;99.90;;;;;;6182367;23;20013;-67
2023/12/30 09:55:00;;;;;;;3.00;1.42;;;9.00;99.90;;;;;;6159450;23;20013;-67
2023/12/30 09:57:46;;;;;;;3.97;1.60;;;9.00;99.90;;;;;;6180413;23;20346;-67
2023/12/30 10:00:35;;;;;;;3.97;1.60;;;9.00;99.90;;;;;;6182520;23;20004;-67
2023/12/30 10:03:23;;;;;;;6.55;1.92;;;9.00;99.90;;;;;;6181108;23;20469;-67
2023/12/30 10:06:12;;;;;;;4.32;1.45;;;9.10;99.90;;;;;;6179642;23;20025;-66
2023/12/30 10:08:58;;;;;;;3.80;2.15;;;9.10;99.90;;;;;;6175908;23;20089;-67
2023/12/30 10:11:45;;;;;;;4.65;1.70;;;9.20;99.90;;;;;;6179985;23;20094;-67
2023/12/30 10:14:31;;;;;;;3.10;1.58;;;9.20;99.90;;;;;;6180406;23;20084;-67
2023/12/30 10:17:18;;;;;;;4.80;1.73;;;9.20;99.80;;;;;;6181328;23;20009;-67
2023/12/30 10:20:04;;;;;;;5.53;2.08;;;9.30;99.80;;;;;;6177087;23;20422;-67
2023/12/30 10:22:50;;;;;;;5.95;1.90;;;9.30;99.80;;;;;;6180212;23;20009;-66
2023/12/30 10:25:37;;;;;;;4.43;1.63;;;9.40;99.80;;;;;;6179660;23;20016;-67
2023/12/30 10:28:23;;;;;;;4.65;2.53;;;9.40;99.80;;;;;;6182333;23;20303;-67
2023/12/30 10:31:11;;;;;;;4.40;2.15;;;9.50;99.70;;;;;;6179349;23;20025;-67
2023/12/30 10:33:57;;;;;;;6.85;2.13;;;9.50;99.60;;;;;;6180949;23;20001;-66
2023/12/30 10:36:43;;;;;;;7.75;1.70;;;9.50;99.80;;;;;;6183323;23;20017;-67
2023/12/30 10:39:34;;;;;;;9.80;1.80;;;9.60;99.50;;;;;;6180116;23;20171;-67
2023/12/30 10:42:20;;;;;;;2.97;1.30;;;9.60;99.50;;;;;;6179289;23;20076;-67
2023/12/30 10:45:07;;;;;;;11.88;2.10;;;9.60;99.40;;;;;;6180130;23;20013;-67
2023/12/30 10:47:57;;;;;;;5.82;2.13;;;9.70;99.40;;;;;;6179892;23;20013;-67
2023/12/30 10:50:46;;;;;;;4.70;1.90;;;9.70;99.30;;;;;;6177850;23;20465;-67
2023/12/30 10:53:36;;;;;;;4.75;2.08;;;9.80;99.40;;;;;;6182835;23;20013;-67
2023/12/30 10:56:24;;;;;;;5.35;1.77;;;9.80;99.30;;;;;;6179398;23;20067;-67
2023/12/30 10:59:12;;;;;;;4.63;2.38;;;9.80;99.20;;;;;;6181264;23;20005;-67
2023/12/30 11:01:58;;;;;;;12.07;3.53;;;9.90;99.20;;;;;;6178014;23;20036;-67
2023/12/30 11:04:45;;;;;;;5.75;2.30;;;9.80;99.10;;;;;;6180513;23;20480;-67
2023/12/30 11:07:31;;;;;;;5.35;1.90;;;9.90;99.10;;;;;;6181113;23;20032;-67
2023/12/30 11:10:20;;;;;;;4.55;2.17;;;9.90;99.10;;;;;;6157622;23;20013;-66
2023/12/30 11:13:06;;;;;;;6.20;1.90;;;10.00;99.00;;;;;;6178552;23;20009;-67
2023/12/30 11:15:53;;;;;;;9.27;2.30;;;10.00;99.10;;;;;;6159288;23;20378;-67
2023/12/30 11:18:55;;;;;;;3.58;2.05;;;10.00;98.90;;;;;;6180153;23;20012;-66
2023/12/30 11:21:46;;;;;;;3.50;1.88;;;10.00;98.80;;;;;;6180176;23;20013;-66
2023/12/30 11:24:33;;;;;;;4.78;2.20;;;10.10;98.80;;;;;;6179521;23;20036;-66
2023/12/30 11:27:22;;;;;;;4.45;1.58;;;10.10;98.80;;;;;;6180407;23;20346;-65
2023/12/30 11:30:23;;;;;;;4.32;1.80;;;10.10;98.70;;;;;;6180600;23;20025;-63
2023/12/30 11:33:09;;;;;;;5.88;1.92;;;10.10;98.60;;;;;;6178837;23;20015;-67
2023/12/30 11:35:55;;;;;;;5.72;1.80;;;10.20;98.70;;;;;;6180837;23;20076;-67
2023/12/30 11:38:45;;;;;;;3.30;1.80;;;10.20;98.60;;;;;;6177935;23;20009;-62
2023/12/30 11:41:31;;;;;;;5.40;2.38;;;10.20;98.50;;;;;;6181965;23;20009;-65
2023/12/30 11:44:17;;;;;;;6.82;2.20;;;10.30;98.50;;;;;;6158249;23;20009;-66
2023/12/30 11:47:03;;;;;;;4.20;1.77;;;10.30;98.40;;;;;;6178339;23;20048;-68
2023/12/30 11:49:49;;;;;;;4.90;1.80;;;10.30;98.30;;;;;;6179329;23;20391;-64
2023/12/30 11:52:36;;;;;;;7.22;2.22;;;10.30;98.20;;;;;;6180353;23;20378;-65
2023/12/30 11:55:24;;;;;;;8.23;2.40;;;10.30;98.20;;;;;;6178895;23;20013;-68
2023/12/30 11:58:10;;;;;;;9.10;2.47;;;10.30;98.20;;;;;;6178878;23;20024;-68
2023/12/30 12:00:56;;;;;;;5.05;2.30;;;10.30;98.10;;;;;;6178837;23;20350;-69
2023/12/30 12:03:41;;;;;;;4.90;2.72;;;10.30;98.10;;;;;;6179610;23;20012;-69
2023/12/30 12:06:27;;;;;;;3.55;2.20;;;10.30;98.00;;;;;;6177664;23;20028;-65
2023/12/30 12:09:14;;;;;;;5.68;2.40;;;10.30;97.90;;;;;;6177410;23;20109;-66
2023/12/30 12:12:01;;;;;;;4.07;1.63;;;10.30;97.90;;;;;;6178379;23;20012;-66
2023/12/30 12:14:48;;;;;;;9.40;2.75;;;10.20;97.80;;;;;;6177499;23;20093;-67
2023/12/30 12:17:37;;;;;;;4.25;1.60;;;10.20;97.80;;;;;;6182251;23;20013;-66
2023/12/30 12:20:26;;;;;;;5.32;2.28;;;10.20;97.90;;;;;;6175947;23;20439;-67
2023/12/30 12:23:16;;;;;;;10.90;2.95;;;10.20;97.90;;;;;;6180707;23;20075;-66
2023/12/30 12:26:04;;;;;;;7.32;2.40;;;10.20;97.90;;;;;;6180953;23;20052;-67
2023/12/30 12:28:53;;;;;;;3.85;1.95;;;10.20;97.90;;;;;;6181261;23;20013;-67
2023/12/30 12:31:44;;;;;;;4.15;2.15;;;10.20;97.90;;;;;;6182282;23;20009;-67
2023/12/30 12:34:30;;;;;;;9.55;2.35;;;10.30;97.80;;;;;;6175830;23;20539;-66
2023/12/30 12:37:17;;;;;;;4.75;2.22;;;10.30;97.80;;;;;;6180157;23;20095;-66
2023/12/30 12:40:10;;;;;;;4.05;2.40;;;10.20;97.80;;;;;;6177822;23;20001;-66
2023/12/30 12:42:56;;;;;;;7.78;2.17;;;10.30;97.80;;;;;;6178289;23;20016;-68
2023/12/30 12:45:42;;;;;;;7.63;3.08;;;10.30;97.70;;;;;;6179715;23;20060;-70
2023/12/30 12:48:28;;;;;;;6.57;2.03;;;10.20;97.70;;;;;;6180047;23;20013;-69
2023/12/30 12:51:14;;;;;;;6.50;2.20;;;10.30;97.70;;;;;;6177215;23;20068;-68
2023/12/30 12:54:00;;;;;;;6.10;2.50;;;10.20;97.70;;;;;;6181626;23;20390;-68
2023/12/30 12:56:46;;;;;;;5.65;2.53;;;10.30;97.80;;;;;;6179757;23;20028;-68
2023/12/30 12:59:32;;;;;;;8.02;2.83;;;10.30;97.70;;;;;;6179651;23;20013;-69
2023/12/30 13:02:18;;;;;;;16.60;3.72;;;10.30;97.70;;;;;;6180297;23;20473;-69
2023/12/30 13:05:04;;;;;;;7.03;3.17;;;10.30;97.60;;;;;;6181630;23;20340;-69
2023/12/30 13:07:50;;;;;;;6.47;2.20;;;10.30;97.60;;;;;;6181238;23;20013;-68
2023/12/30 13:10:41;;;;;;;4.15;1.80;;;10.30;97.80;;;;;;6178544;23;20320;-63
2023/12/30 13:13:27;;;;;;;8.15;2.85;;;10.40;97.60;;;;;;6180857;23;20021;-63
2023/12/30 13:16:13;;;;;;;3.78;2.00;;;10.40;97.60;;;;;;6182430;23;20033;-63
2023/12/30 13:18:59;;;;;;;5.25;2.30;;;10.40;97.50;;;;;;6182812;23;20068;-62
2023/12/30 13:21:49;;;;;;;4.57;2.65;;;10.40;97.50;;;;;;6181645;23;20072;-64
2023/12/30 13:24:37;;;;;;;5.65;2.25;;;10.40;97.50;;;;;;6180799;23;20016;-64
2023/12/30 13:27:23;;;;;;;4.38;2.05;;;10.40;97.40;;;;;;6183248;23;20017;-64
2023/12/30 13:30:10;;;;;;;9.55;3.03;;;10.40;97.30;;;;;;6180119;23;20020;-63
2023/12/30 13:32:56;;;;;;;6.88;2.35;;;10.40;97.20;;;;;;6182938;23;20041;-63
2023/12/30 13:35:42;;;;;;;6.40;2.45;;;10.50;97.20;;;;;;6182791;23;20037;-64
2023/12/30 13:38:33;;;;;;;5.65;2.33;;;10.40;97.20;;;;;;6182107;23;20007;-64
2023/12/30 13:41:23;;;;;;;3.85;2.10;;;10.50;97.20;;;;;;6182475;23;20048;-63
2023/12/30 13:44:12;;;;;;;6.03;2.65;;;10.50;97.20;;;;;;6181239;23;20016;-63
2023/12/30 13:47:13;;;;;;;6.03;2.22;;;10.40;97.20;;;;;;6181364;23;20092;-63
2023/12/30 13:50:37;;;;;;;4.78;2.30;;;10.40;97.20;;;;;;6178912;23;20009;-63
2023/12/30 13:53:11;;;;;;;6.22;2.88;;;10.40;97.20;;;;;;6184224;23;20019;-64
2023/12/30 13:56:03;;;;;;;3.72;2.50;;;10.30;97.10;;;;;;6182747;23;20009;-63
2023/12/30 13:58:50;;;;;;;4.43;2.45;;;10.30;97.00;;;;;;6179708;23;20430;-63
2023/12/30 14:01:37;;;;;;;6.90;2.53;;;10.30;97.10;;;;;;6179194;23;20084;-64
2023/12/30 14:04:24;;;;;;;6.07;2.13;;;10.30;97.10;;;;;;6181750;23;20067;-63
2023/12/30 14:07:16;;;;;;;6.20;2.28;;;10.20;97.00;;;;;;6180992;23;20017;-63
2023/12/30 14:10:06;;;;;;;4.05;2.10;;;10.20;96.90;;;;;;6182056;23;20009;-64
2023/12/30 14:12:59;;;;;;;7.35;3.03;;;10.20;96.90;;;;;;6162047;23;20490;-63
2023/12/30 14:15:47;;;;;;;4.68;2.13;;;10.20;96.90;;;;;;6181873;23;20016;-63
2023/12/30 14:18:33;;;;;;;6.07;2.72;;;10.20;96.90;;;;;;6180318;23;20041;-64
2023/12/30 14:21:19;;;;;;;5.90;3.58;;;10.10;96.80;;;;;;6179276;23;20009;-63
2023/12/30 14:24:05;;;;;;;7.70;2.50;;;10.10;96.80;;;;;;6179427;23;20088;-63
2023/12/30 14:26:51;;;;;;;5.20;2.65;;;10.10;96.80;;;;;;6180047;23;20021;-63
2023/12/30 14:29:37;;;;;;;6.75;2.80;;;10.10;96.80;;;;;;6182847;23;20434;-63
2023/12/30 14:32:23;;;;;;;6.47;2.30;;;10.00;96.70;;;;;;6180024;23;20017;-64